Latest Weather Observations for Richmond

IDN60801

Issued at 4:03 pm EST Wednesday 4 May 2016 (issued every 30 minutes, with the page automatically refreshed every 10 minutes)

About weather observations | Map of weather stations | Latest weather observations for NSW | Other Formats
Station Details ID: 067105 Name: RICHMOND RAAF Lat: -33.60 Lon: 150.78 Height: 19.0 m
Data from the previous 72 hours. | See also: Recent months at Richmond
Date/Time
EST
Temp
°C
App
Temp
°C
Dew
Point
Rel
Hum
%
Delta-T
°C
Wind Press
QNH
hPa
Press
MSL
hPa
Rain
since 9 am
mm
Dir
 
Spd
km/h
Gust
km/h
Spd
kts
Gust
kts
04/04:00pm 26.2 25.3 9.1 34 9.3 NNE 4 7 2 4 1013.6 1013.6 0.0
04/03:30pm 25.9 24.3 8.8 34 9.3 SE 7 9 4 5 1013.5 1013.5 0.0
04/03:00pm 25.6 24.1 8.6 34 9.2 ESE 6 11 3 6 1013.3 1013.3 0.0
04/02:30pm 25.9 23.7 9.3 35 9.1 E 11 17 6 9 1013.2 1013.2 0.0
04/02:00pm 25.3 24.0 9.2 36 8.8 ENE 6 11 3 6 1013.2 1013.2 0.0
04/01:30pm 25.0 23.2 9.3 37 8.6 ESE 9 11 5 6 1013.3 1013.3 0.0
04/01:00pm 24.8 22.7 8.3 35 8.8 ESE 9 11 5 6 1013.4 1013.4 0.0
04/12:30pm 24.5 22.5 8.5 36 8.6 E 9 15 5 8 1013.7 1013.7 0.0
04/12:00pm 24.7 22.6 8.2 35 8.8 N 9 15 5 8 1014.0 1014.0 0.0
04/11:30am 24.7 22.6 8.2 35 8.8 N 9 17 5 9 1014.4 1014.4 0.0
04/11:00am 23.8 22.1 8.2 37 8.3 W 7 15 4 8 1014.8 1014.8 0.0
04/10:30am 23.4 20.8 7.9 37 8.2 WNW 11 19 6 10 1015.1 1015.1 0.0
04/10:00am 22.9 20.5 8.6 40 7.6 WNW 11 15 6 8 1015.2 1015.2 0.0
04/09:30am 21.2 20.1 8.5 44 6.7 NW 4 11 2 6 1015.2 1015.2 0.0
04/09:00am 20.2 18.7 9.2 49 5.8 WNW 7 11 4 6 1015.1 1015.1 0.0
04/08:30am 18.7 16.3 8.7 52 5.2 NNW 11 15 6 8 1014.9 1014.9 0.0
04/08:00am 16.9 14.3 9.3 61 4.0 N 13 15 7 8 1014.4 1014.4 0.0
04/07:30am 15.2 12.5 9.1 67 3.1 N 13 20 7 11 1014.1 1014.1 0.0
04/07:00am 13.8 11.3 8.4 70 2.7 NNW 11 15 6 8 1013.6 1013.6 0.0
04/06:30am 12.3 9.3 7.8 74 2.2 NNW 13 17 7 9 1013.3 1013.3 0.0
04/06:00am 12.0 10.2 8.1 77 1.9 NNW 7 13 4 7 1013.0 1013.0 0.0
04/05:30am 11.3 8.9 8.5 83 1.4 NNW 11 15 6 8 1012.6 1012.6 0.0
04/05:00am 8.4 7.1 5.9 84 1.1 NNW 2 7 1 4 1012.3 1012.3 0.0
04/04:30am 9.4 8.5 7.8 90 0.8 NE 2 7 1 4 1012.0 1012.0 0.0
04/04:00am 9.2 8.6 7.5 89 0.8 CALM 0 0 0 0 1011.8 1011.8 0.0
04/03:30am 9.9 9.4 7.7 86 1.1 CALM 0 0 0 0 1011.7 1011.7 0.0
04/03:00am 9.4 8.7 7.0 85 1.1 CALM 0 0 0 0 1011.7 1011.7 0.0
04/02:30am 9.4 8.6 6.7 83 1.3 CALM 0 0 0 0 1011.5 1011.5 0.0
04/02:00am 10.4 9.9 8.0 85 1.2 CALM 0 0 0 0 1011.5 1011.5 0.0
04/01:30am 10.4 9.3 6.7 78 1.7 SE 2 6 1 3 1011.6 1011.6 0.0
04/01:00am 11.6 11.0 7.5 76 2.0 CALM 0 0 0 0 1011.5 1011.5 0.0
04/12:30am 12.6 10.7 6.6 67 2.9 N 6 9 3 5 1011.3 1011.3 0.0
04/12:00am 13.9 11.8 6.5 61 3.6 N 7 11 4 6 1011.2 1011.2 0.0
 
Date/Time
EST
Temp
°C
App
Temp
°C
Dew
Point
Rel
Hum
%
Delta-T
°C
Wind Press
QNH
hPa
Press
MSL
hPa
Rain
since 9 am
mm
Dir
 
Spd
km/h
Gust
km/h
Spd
kts
Gust
kts
03/11:30pm 16.3 13.7 7.8 57 4.3 N 11 13 6 7 1011.2 1011.2 0.0
03/11:00pm 16.4 14.5 7.6 56 4.4 N 7 9 4 5 1011.2 1011.2 0.0
03/10:30pm 16.5 13.8 7.2 54 4.6 NNW 11 13 6 7 1011.0 1011.0 0.0
03/10:00pm 16.6 13.4 7.0 53 4.8 NNW 13 17 7 9 1010.6 1010.6 0.0
03/09:30pm 18.3 14.5 7.4 49 5.5 NW 17 22 9 12 1010.4 1010.4 0.0
03/09:00pm 18.4 14.5 7.2 48 5.7 NW 17 22 9 12 1010.1 1010.1 0.0
03/08:30pm 18.9 15.0 7.0 46 6.0 NNW 17 24 9 13 1009.7 1009.7 0.0
03/08:00pm 18.1 14.5 6.6 47 5.7 NW 15 19 8 10 1009.4 1009.4 0.0
03/07:30pm 19.5 16.0 5.6 40 6.8 NNW 13 20 7 11 1009.1 1009.1 0.0
03/07:00pm 20.9 16.4 6.1 38 7.4 WNW 19 24 10 13 1008.7 1008.7 0.0
03/06:30pm 21.3 15.7 5.2 35 8.0 WNW 24 33 13 18 1008.4 1008.4 0.0
03/06:00pm 21.4 15.7 4.9 34 8.1 WNW 24 32 13 17 1007.8 1007.8 0.0
03/05:30pm 21.0 16.9 4.1 33 8.2 NW 15 19 8 10 1007.3 1007.3 0.0
03/05:00pm 22.3 18.2 4.4 31 8.8 NW 15 20 8 11 1007.0 1007.0 0.0
03/04:30pm 24.0 19.1 4.9 29 9.6 WNW 20 28 11 15 1006.8 1006.8 0.0
03/04:00pm 24.9 19.5 4.6 27 10.2 WNW 22 33 12 18 1006.6 1006.6 0.0
03/03:30pm 25.6 20.3 5.2 27 10.4 W 22 33 12 18 1006.6 1006.6 0.0
03/03:00pm 25.9 21.0 4.9 26 10.7 WNW 20 30 11 16 1006.6 1006.6 0.0
03/02:30pm 26.0 20.3 5.0 26 10.7 NW 24 33 13 18 1006.7 1006.7 0.0
03/02:00pm 26.1 20.0 4.6 25 10.9 WNW 26 43 14 23 1006.8 1006.8 0.0
03/01:30pm 25.7 19.5 4.2 25 10.7 NW 26 41 14 22 1007.0 1007.0 0.0
03/01:00pm 25.5 19.6 5.7 28 10.2 NW 26 37 14 20 1007.7 1007.7 0.0
03/12:30pm 25.1 20.5 6.3 30 9.7 WNW 20 33 11 18 1008.2 1008.2 0.0
03/12:00pm 23.7 22.4 10.0 42 7.5 ENE 7 13 4 7 1009.0 1009.0 0.0
03/11:30am 22.1 20.5 10.3 47 6.4 ESE 9 13 5 7 1009.7 1009.7 0.0
03/11:00am 21.4 19.9 10.6 50 5.9 SSE 9 13 5 7 1010.5 1010.5 0.0
03/10:30am 20.3 19.4 11.2 56 5.0 ESE 7 13 4 7 1011.3 1011.3 0.0
03/10:00am 18.5 17.5 11.1 62 4.0 SE 7 11 4 6 1011.9 1011.9 0.0
03/09:30am 16.4 15.6 9.8 65 3.5 S 4 7 2 4 1012.4 1012.4 0.0
03/09:00am 15.2 13.7 9.1 67 3.1 NNE 7 9 4 5 1012.7 1012.7 0.0
03/08:30am 13.9 13.8 9.5 75 2.3 CALM 0 0 0 0 1012.9 1012.9 0.0
03/08:00am 11.4 10.0 9.0 85 1.2 NNW 6 7 3 4 1013.1 1013.1 0.0
03/07:30am 9.4 9.0 8.2 92 0.6 CALM 0 0 0 0 1012.9 1012.9 0.0
03/07:00am 7.0 6.2 6.3 95 0.3 CALM 0 2 0 1 1012.8 1012.8 0.0
03/06:30am 6.9 6.1 6.5 97 0.2 CALM 0 0 0 0 1012.4 1012.4 0.0
03/06:00am 7.1 5.9 6.4 95 0.3 WSW 2 9 1 5 1012.3 1012.3 0.0
03/05:30am 7.4 6.3 6.8 96 0.3 WSW 2 7 1 4 1012.1 1012.1 0.0
03/05:00am 7.4 6.3 6.7 95 0.3 SW 2 6 1 3 1012.0 1012.0 0.0
03/04:30am 7.7 6.9 6.3 91 0.6 CALM 0 0 0 0 1011.5 1011.5 0.0
03/04:00am 7.8 6.9 6.1 89 0.8 CALM 0 6 0 3 1011.7 1011.7 0.0
03/03:30am 8.0 6.7 6.1 88 0.9 SSE 2 6 1 3 1011.4 1011.4 0.0
03/03:00am 8.2 6.2 6.3 88 0.9 SW 6 7 3 4 1011.4 1011.4 0.0
03/02:30am 9.1 8.3 6.5 84 1.2 CALM 0 0 0 0 1011.7 1011.7 0.0
03/02:00am 9.6 8.1 6.7 82 1.4 WNW 4 7 2 4 1012.1 1012.1 0.0
03/01:30am 9.8 8.4 7.2 84 1.2 SW 4 7 2 4 1012.6 1012.6 0.0
03/01:00am 10.7 8.3 7.2 79 1.7 SSE 9 11 5 6 1013.0 1013.0 0.0
03/12:30am 11.2 9.8 7.3 77 1.9 NNE 4 7 2 4 1013.0 1013.0 0.0
03/12:00am 11.8 10.1 7.5 75 2.1 NE 6 13 3 7 1013.2 1013.2 0.0
 
Date/Time
EST
Temp
°C
App
Temp
°C
Dew
Point
Rel
Hum
%
Delta-T
°C
Wind Press
QNH
hPa
Press
MSL
hPa
Rain
since 9 am
mm
Dir
 
Spd
km/h
Gust
km/h
Spd
kts
Gust
kts
02/11:30pm 12.7 9.1 8.2 74 2.2 W 17 19 9 10 1013.5 1013.5 0.0
02/11:00pm 11.8 10.3 6.9 72 2.3 W 4 9 2 5 1013.9 1013.9 0.0
02/10:30pm 12.9 10.4 6.7 66 3.0 NW 9 9 5 5 1013.7 1013.7 0.0
02/10:00pm 12.9 12.1 6.5 65 3.1 CALM 0 0 0 0 1014.0 1014.0 0.0
02/09:30pm 16.1 13.4 5.7 50 5.0 WNW 9 13 5 7 1014.2 1014.2 0.0
02/09:00pm 17.2 13.7 5.5 46 5.6 WNW 13 17 7 9 1014.1 1014.1 0.0
02/08:30pm 18.0 14.6 5.9 45 5.9 WNW 13 20 7 11 1014.0 1014.0 0.0
02/08:00pm 18.2 15.0 6.7 47 5.7 NNW 13 19 7 10 1013.8 1013.8 0.0
02/07:30pm 20.0 16.2 6.0 40 7.0 NW 15 20 8 11 1013.7 1013.7 0.0
02/07:00pm 19.3 16.5 7.1 45 6.2 NW 11 15 6 8 1013.7 1013.7 0.0
02/06:30pm 19.5 17.2 7.3 45 6.2 NW 9 13 5 7 1013.4 1013.4 0.0
02/06:00pm 19.9 17.3 7.9 46 6.2 NW 11 15 6 8 1012.5 1012.5 0.0
02/05:30pm 19.9 18.2 10.0 53 5.3 NW 9 13 5 7 1012.3 1012.3 0.0
02/05:00pm 19.6 18.4 10.3 55 5.0 NW 7 9 4 5 1012.0 1012.0 0.0
02/04:30pm 19.8 19.0 11.0 57 4.8 NNW 6 9 3 5 1011.7 1011.7 0.0
02/04:00pm 20.8 19.9 11.4 55 5.2 NNW 7 11 4 6 1012.0 1012.0 0.0
02/03:30pm 21.8 19.5 10.3 48 6.3 SW 13 15 7 8 1012.1 1012.1 0.0
02/03:00pm 22.7 21.2 10.5 46 6.7 SW 9 15 5 8 1012.0 1012.0 0.0
02/02:30pm 23.9 22.1 7.9 36 8.5 WSW 7 11 4 6 1011.8 1011.8 0.0
02/02:00pm 24.0 22.2 8.0 36 8.5 WNW 7 11 4 6 1011.8 1011.8 0.0
02/01:30pm 24.1 22.0 8.1 36 8.5 NE 9 13 5 7 1011.8 1011.8 0.0
02/01:00pm 23.9 21.3 7.9 36 8.5 ESE 11 15 6 8 1012.1 1012.1 0.0
02/12:30pm 23.1 21.5 8.0 38 8.0 SE 6 11 3 6 1013.1 1013.1 0.0
02/12:00pm 23.1 21.8 9.1 41 7.5 SW 6 9 3 5 1014.0 1014.0 0.0
02/11:30am 22.4 20.5 8.9 42 7.2 ESE 9 13 5 7 1014.0 1014.0 0.0
02/11:00am 21.5 20.0 9.1 45 6.6 NNE 7 15 4 8 1014.8 1014.8 0.0
02/10:30am 20.8 18.9 9.1 47 6.2 ENE 9 17 5 9 1015.6 1015.6 0.0
02/10:00am 19.3 17.7 10.3 56 4.8 NE 9 11 5 6 1016.2 1016.2 0.0
02/09:30am 17.5 15.4 9.7 60 4.1 NE 11 15 6 8 1016.7 1016.7 0.0
02/09:00am 15.6 13.8 9.5 67 3.2 NE 9 13 5 7 1017.3 1017.3 0.2
02/08:30am 14.7 13.4 9.3 70 2.8 E 6 9 3 5 1017.6 1017.6 0.2
02/08:00am 12.7 11.5 9.5 81 1.6 NNE 6 9 3 5 1017.7 1017.7 0.2
02/07:30am 10.5 10.3 9.1 91 0.7 CALM 0 0 0 0 1017.6 1017.6 0.2
02/07:00am 7.6 6.8 6.4 92 0.5 CALM 0 0 0 0 1017.5 1017.5 0.2
02/06:30am 8.1 7.3 6.7 91 0.6 CALM 0 0 0 0 1017.3 1017.3 0.2
02/06:00am 8.5 7.9 7.3 92 0.6 CALM 0 0 0 0 1017.3 1017.3 0.2
02/05:30am 9.0 8.4 7.3 89 0.8 CALM 0 0 0 0 1017.1 1017.1 0.2
02/05:00am 8.9 7.4 7.0 88 0.9 E 4 7 2 4 1016.7 1016.7 0.2
02/04:30am 8.7 6.7 6.3 85 1.1 WNW 6 9 3 5 1016.2 1016.2 0.2
02/04:00am 9.8 8.4 7.2 84 1.2 S 4 9 2 5 1016.0 1016.0 0.2
02/03:30am 10.2 8.2 6.9 80 1.6 SSE 7 9 4 5 1015.9 1015.9 0.2
02/03:00am 11.6 10.3 7.7 77 1.9 NE 4 7 2 4 1015.8 1015.8 0.2
02/02:30am 13.3 10.8 8.0 70 2.6 WNW 11 13 6 7 1015.8 1015.8 0.2
02/02:00am 12.9 10.2 7.4 69 2.7 NW 11 11 6 6 1015.8 1015.8 0.2
02/01:30am 13.2 11.5 7.6 69 2.7 W 6 9 3 5 1015.8 1015.8 0.2
02/01:00am 13.8 12.1 7.6 66 3.0 NNW 6 7 3 4 1015.9 1015.9 0.2
02/12:30am 15.7 14.7 7.2 57 4.2 WSW 2 6 1 3 1015.9 1015.9 0.2
02/12:00am 16.1 14.2 7.6 57 4.2 N 7 11 4 6 1015.9 1015.9 0.2
 
Date/Time
EST
Temp
°C
App
Temp
°C
Dew
Point
Rel
Hum
%
Delta-T
°C
Wind Press
QNH
hPa
Press
MSL
hPa
Rain
since 9 am
mm
Dir
 
Spd
km/h
Gust
km/h
Spd
kts
Gust
kts
01/11:30pm 14.7 13.3 7.3 61 3.6 N 4 9 2 5 1015.9 1015.9 0.2
01/11:00pm 17.1 14.0 7.2 52 4.9 W 13 15 7 8 1015.8 1015.8 0.2
01/10:30pm 18.7 15.3 7.5 48 5.7 WSW 15 24 8 13 1015.7 1015.7 0.2
01/10:00pm 19.4 16.5 8.1 48 5.8 WSW 13 24 7 13 1015.5 1015.5 0.2
01/09:30pm 19.8 16.5 9.4 51 5.5 WSW 17 24 9 13 1015.1 1015.1 0.2
01/09:00pm 21.1 17.4 9.4 47 6.2 WSW 19 26 10 14 1014.5 1014.5 0.2
01/08:30pm 21.4 17.2 9.6 47 6.3 W 22 37 12 20 1013.9 1013.9 0.2
01/08:00pm 20.4 17.1 9.6 50 5.8 WSW 17 19 9 10 1013.2 1013.2 0.2
01/07:30pm 21.4 18.3 8.7 44 6.7 WNW 15 20 8 11 1012.6 1012.6 0.2
01/07:00pm 22.0 18.4 8.5 42 7.1 WNW 17 28 9 15 1012.2 1012.2 0.2
01/06:30pm 22.3 19.0 8.1 40 7.5 WNW 15 19 8 10 1011.9 1011.9 0.2
01/06:00pm 23.3 19.1 7.4 36 8.3 WNW 19 24 10 13 1011.5 1011.5 0.2
01/05:30pm 23.4 19.8 8.3 38 8.0 WNW 17 22 9 12 1011.1 1011.1 0.2
01/05:00pm 25.7 21.8 9.5 36 8.9 WNW 20 28 11 15 1010.7 1010.7 0.2
01/04:30pm 27.0 22.9 10.2 35 9.4 NW 22 30 12 16 1010.3 1010.3 0.2

Other Formats:

Comma delimited format used in spreadsheet applications
http://www.bom.gov.au/fwo/IDN60801/IDN60801.95753.axf

JavaScript Object Notation format (JSON) in row-major order
http://www.bom.gov.au/fwo/IDN60801/IDN60801.95753.json